sensor_id;sensor_type;location;lat;lon;timestamp;temperature;humidity
12634;DHT22;6382;48.614;8.880;2022-09-20T00:00:41;6.70;99.90
12634;DHT22;6382;48.614;8.880;2022-09-20T00:03:08;6.50;99.90
12634;DHT22;6382;48.614;8.880;2022-09-20T00:05:36;6.50;99.90
12634;DHT22;6382;48.614;8.880;2022-09-20T00:08:04;6.40;99.90
12634;DHT22;6382;48.614;8.880;2022-09-20T00:10:34;6.40;99.90
12634;DHT22;6382;48.614;8.880;2022-09-20T00:13:05;6.40;99.90
12634;DHT22;6382;48.614;8.880;2022-09-20T00:15:32;6.50;99.90
12634;DHT22;6382;48.614;8.880;2022-09-20T00:17:59;6.50;99.90
12634;DHT22;6382;48.614;8.880;2022-09-20T00:20:26;6.50;99.90
12634;DHT22;6382;48.614;8.880;2022-09-20T00:22:53;6.50;99.90
12634;DHT22;6382;48.614;8.880;2022-09-20T00:25:19;6.30;99.90
12634;DHT22;6382;48.614;8.880;2022-09-20T00:27:47;6.20;99.90
12634;DHT22;6382;48.614;8.880;2022-09-20T00:30:14;8.60;99.90
12634;DHT22;6382;48.614;8.880;2022-09-20T00:32:41;6.10;99.90
12634;DHT22;6382;48.614;8.880;2022-09-20T00:35:07;6.10;99.90
12634;DHT22;6382;48.614;8.880;2022-09-20T00:37:38;6.00;99.90
12634;DHT22;6382;48.614;8.880;2022-09-20T00:40:06;6.10;99.90
12634;DHT22;6382;48.614;8.880;2022-09-20T00:42:33;5.90;99.90
12634;DHT22;6382;48.614;8.880;2022-09-20T00:45:01;5.90;99.90
12634;DHT22;6382;48.614;8.880;2022-09-20T00:49:57;8.70;99.90
12634;DHT22;6382;48.614;8.880;2022-09-20T00:52:25;5.90;99.90
12634;DHT22;6382;48.614;8.880;2022-09-20T00:54:52;7.40;99.90
12634;DHT22;6382;48.614;8.880;2022-09-20T00:57:19;5.60;99.90
12634;DHT22;6382;48.614;8.880;2022-09-20T00:59:46;6.20;99.90
12634;DHT22;6382;48.614;8.880;2022-09-20T01:02:15;6.20;99.90
12634;DHT22;6382;48.614;8.880;2022-09-20T01:04:43;7.80;99.90
12634;DHT22;6382;48.614;8.880;2022-09-20T01:07:12;6.20;99.90
12634;DHT22;6382;48.614;8.880;2022-09-20T01:09:40;6.20;99.90
12634;DHT22;6382;48.614;8.880;2022-09-20T01:12:08;6.20;99.90
12634;DHT22;6382;48.614;8.880;2022-09-20T01:14:38;6.10;99.90
12634;DHT22;6382;48.614;8.880;2022-09-20T01:17:05;6.00;99.90
12634;DHT22;6382;48.614;8.880;2022-09-20T01:19:46;6.00;99.90
12634;DHT22;6382;48.614;8.880;2022-09-20T01:27:49;5.90;99.90
12634;DHT22;6382;48.614;8.880;2022-09-20T01:30:21;6.10;99.90
12634;DHT22;6382;48.614;8.880;2022-09-20T01:33:08;6.10;99.90
12634;DHT22;6382;48.614;8.880;2022-09-20T01:35:35;6.10;99.90
12634;DHT22;6382;48.614;8.880;2022-09-20T01:38:12;8.90;99.90
12634;DHT22;6382;48.614;8.880;2022-09-20T01:40:43;6.00;99.90
12634;DHT22;6382;48.614;8.880;2022-09-20T01:43:17;6.00;99.90
12634;DHT22;6382;48.614;8.880;2022-09-20T01:45:47;6.00;99.90
12634;DHT22;6382;48.614;8.880;2022-09-20T01:48:27;6.10;99.90
12634;DHT22;6382;48.614;8.880;2022-09-20T01:53:34;6.20;99.90
12634;DHT22;6382;48.614;8.880;2022-09-20T01:58:54;6.20;99.90
12634;DHT22;6382;48.614;8.880;2022-09-20T02:01:52;6.30;99.90
12634;DHT22;6382;48.614;8.880;2022-09-20T02:04:37;6.40;99.90
12634;DHT22;6382;48.614;8.880;2022-09-20T02:14:54;6.80;99.90
12634;DHT22;6382;48.614;8.880;2022-09-20T02:20:14;6.80;99.90
12634;DHT22;6382;48.614;8.880;2022-09-20T02:25:20;6.90;99.90
12634;DHT22;6382;48.614;8.880;2022-09-20T02:30:32;7.00;99.90
12634;DHT22;6382;48.614;8.880;2022-09-20T02:33:12;6.90;99.90
12634;DHT22;6382;48.614;8.880;2022-09-20T02:38:33;6.80;99.90
12634;DHT22;6382;48.614;8.880;2022-09-20T02:49:33;6.80;99.90
12634;DHT22;6382;48.614;8.880;2022-09-20T02:51:29;6.70;99.90
12634;DHT22;6382;48.614;8.880;2022-09-20T02:56:57;6.60;99.90
12634;DHT22;6382;48.614;8.880;2022-09-20T02:59:31;6.40;99.90
12634;DHT22;6382;48.614;8.880;2022-09-20T03:04:55;6.10;99.90
12634;DHT22;6382;48.614;8.880;2022-09-20T03:10:12;5.80;99.90
12634;DHT22;6382;48.614;8.880;2022-09-20T03:12:56;5.80;99.90
12634;DHT22;6382;48.614;8.880;2022-09-20T03:26:15;5.80;99.90
12634;DHT22;6382;48.614;8.880;2022-09-20T03:28:53;5.80;99.90
12634;DHT22;6382;48.614;8.880;2022-09-20T03:31:45;5.90;99.90
12634;DHT22;6382;48.614;8.880;2022-09-20T03:34:17;6.00;99.90
12634;DHT22;6382;48.614;8.880;2022-09-20T03:42:21;6.30;99.90
12634;DHT22;6382;48.614;8.880;2022-09-20T03:44:56;6.40;99.90
12634;DHT22;6382;48.614;8.880;2022-09-20T03:57:54;6.60;99.90
12634;DHT22;6382;48.614;8.880;2022-09-20T04:00:38;6.60;99.90
12634;DHT22;6382;48.614;8.880;2022-09-20T04:11:09;6.70;99.90
12634;DHT22;6382;48.614;8.880;2022-09-20T04:18:49;6.60;99.90
12634;DHT22;6382;48.614;8.880;2022-09-20T04:26:26;6.50;99.90
12634;DHT22;6382;48.614;8.880;2022-09-20T04:34:03;6.60;99.90
12634;DHT22;6382;48.614;8.880;2022-09-20T04:36:45;6.70;99.90
12634;DHT22;6382;48.614;8.880;2022-09-20T04:39:38;6.60;99.90
12634;DHT22;6382;48.614;8.880;2022-09-20T04:47:35;6.50;99.90
12634;DHT22;6382;48.614;8.880;2022-09-20T04:55:23;6.60;99.90
12634;DHT22;6382;48.614;8.880;2022-09-20T05:00:23;6.60;99.90
12634;DHT22;6382;48.614;8.880;2022-09-20T05:03:18;6.70;99.90
12634;DHT22;6382;48.614;8.880;2022-09-20T05:06:01;6.70;99.90
12634;DHT22;6382;48.614;8.880;2022-09-20T05:19:12;6.60;99.90
12634;DHT22;6382;48.614;8.880;2022-09-20T05:30:03;6.80;99.90
12634;DHT22;6382;48.614;8.880;2022-09-20T05:32:35;7.00;99.90
12634;DHT22;6382;48.614;8.880;2022-09-20T05:35:10;7.20;99.90
12634;DHT22;6382;48.614;8.880;2022-09-20T05:43:12;7.50;99.90
12634;DHT22;6382;48.614;8.880;2022-09-20T05:48:10;7.50;99.90
12634;DHT22;6382;48.614;8.880;2022-09-20T05:50:51;7.60;99.90
12634;DHT22;6382;48.614;8.880;2022-09-20T06:01:10;7.70;99.90
12634;DHT22;6382;48.614;8.880;2022-09-20T06:03:43;7.80;99.90
12634;DHT22;6382;48.614;8.880;2022-09-20T06:11:45;8.00;99.90
12634;DHT22;6382;48.614;8.880;2022-09-20T06:21:45;8.10;99.90
12634;DHT22;6382;48.614;8.880;2022-09-20T06:24:18;10.10;99.90
12634;DHT22;6382;48.614;8.880;2022-09-20T06:26:47;8.10;99.90
12634;DHT22;6382;48.614;8.880;2022-09-20T06:29:15;8.10;99.90
12634;DHT22;6382;48.614;8.880;2022-09-20T06:31:44;8.10;99.90
12634;DHT22;6382;48.614;8.880;2022-09-20T06:34:12;8.10;99.90
12634;DHT22;6382;48.614;8.880;2022-09-20T06:36:41;8.20;99.90
12634;DHT22;6382;48.614;8.880;2022-09-20T06:42:15;8.40;99.90
12634;DHT22;6382;48.614;8.880;2022-09-20T06:44:42;8.60;99.90
12634;DHT22;6382;48.614;8.880;2022-09-20T06:47:09;9.80;99.90
12634;DHT22;6382;48.614;8.880;2022-09-20T06:49:36;8.90;99.90
12634;DHT22;6382;48.614;8.880;2022-09-20T06:52:03;9.00;99.90
12634;DHT22;6382;48.614;8.880;2022-09-20T06:54:30;10.30;99.90
12634;DHT22;6382;48.614;8.880;2022-09-20T06:56:57;9.30;99.90
12634;DHT22;6382;48.614;8.880;2022-09-20T06:59:25;9.30;99.90
12634;DHT22;6382;48.614;8.880;2022-09-20T07:01:52;9.50;99.90
12634;DHT22;6382;48.614;8.880;2022-09-20T07:04:19;10.70;99.90
12634;DHT22;6382;48.614;8.880;2022-09-20T07:06:47;9.50;99.90
12634;DHT22;6382;48.614;8.880;2022-09-20T07:09:14;9.60;99.90
12634;DHT22;6382;48.614;8.880;2022-09-20T07:11:40;9.80;99.90
12634;DHT22;6382;48.614;8.880;2022-09-20T07:14:08;9.80;99.90
12634;DHT22;6382;48.614;8.880;2022-09-20T07:16:35;10.00;99.90
12634;DHT22;6382;48.614;8.880;2022-09-20T07:19:02;10.00;99.90
12634;DHT22;6382;48.614;8.880;2022-09-20T07:21:30;9.90;99.90
12634;DHT22;6382;48.614;8.880;2022-09-20T07:23:57;10.00;99.90
12634;DHT22;6382;48.614;8.880;2022-09-20T07:26:25;10.80;99.90
12634;DHT22;6382;48.614;8.880;2022-09-20T07:28:52;10.00;99.90
12634;DHT22;6382;48.614;8.880;2022-09-20T07:31:20;10.00;99.90
12634;DHT22;6382;48.614;8.880;2022-09-20T07:33:48;9.90;99.90
12634;DHT22;6382;48.614;8.880;2022-09-20T07:36:15;9.80;99.90
12634;DHT22;6382;48.614;8.880;2022-09-20T07:38:45;9.80;99.90
12634;DHT22;6382;48.614;8.880;2022-09-20T07:41:12;9.70;99.90
12634;DHT22;6382;48.614;8.880;2022-09-20T07:43:39;10.80;99.90
12634;DHT22;6382;48.614;8.880;2022-09-20T07:46:05;9.70;99.90
12634;DHT22;6382;48.614;8.880;2022-09-20T07:48:33;9.70;99.90
12634;DHT22;6382;48.614;8.880;2022-09-20T07:51:01;9.70;99.90
12634;DHT22;6382;48.614;8.880;2022-09-20T07:53:33;9.60;99.90
12634;DHT22;6382;48.614;8.880;2022-09-20T07:56:01;10.20;99.90
12634;DHT22;6382;48.614;8.880;2022-09-20T07:58:29;9.60;99.90
12634;DHT22;6382;48.614;8.880;2022-09-20T08:01:00;9.60;99.90
12634;DHT22;6382;48.614;8.880;2022-09-20T08:03:30;9.60;99.90
12634;DHT22;6382;48.614;8.880;2022-09-20T08:06:02;9.60;99.90
12634;DHT22;6382;48.614;8.880;2022-09-20T08:08:36;9.70;99.90
12634;DHT22;6382;48.614;8.880;2022-09-20T08:11:04;9.80;99.90
12634;DHT22;6382;48.614;8.880;2022-09-20T08:13:35;9.90;99.90
12634;DHT22;6382;48.614;8.880;2022-09-20T08:16:22;9.90;99.90
12634;DHT22;6382;48.614;8.880;2022-09-20T08:18:56;10.00;99.90
12634;DHT22;6382;48.614;8.880;2022-09-20T08:21:25;10.00;99.90
12634;DHT22;6382;48.614;8.880;2022-09-20T08:23:52;10.10;99.90
12634;DHT22;6382;48.614;8.880;2022-09-20T08:26:20;10.10;99.90
12634;DHT22;6382;48.614;8.880;2022-09-20T08:28:49;10.10;99.90
12634;DHT22;6382;48.614;8.880;2022-09-20T08:31:18;10.20;99.90
12634;DHT22;6382;48.614;8.880;2022-09-20T08:33:45;10.20;99.90
12634;DHT22;6382;48.614;8.880;2022-09-20T08:36:14;11.10;99.90
12634;DHT22;6382;48.614;8.880;2022-09-20T08:38:41;10.50;99.90
12634;DHT22;6382;48.614;8.880;2022-09-20T08:41:32;11.20;99.90
12634;DHT22;6382;48.614;8.880;2022-09-20T08:44:21;10.50;99.90
12634;DHT22;6382;48.614;8.880;2022-09-20T08:46:59;10.60;99.90
12634;DHT22;6382;48.614;8.880;2022-09-20T08:49:28;10.70;99.90
12634;DHT22;6382;48.614;8.880;2022-09-20T08:51:56;10.80;99.90
12634;DHT22;6382;48.614;8.880;2022-09-20T08:54:24;10.80;99.90
12634;DHT22;6382;48.614;8.880;2022-09-20T08:56:51;10.80;99.90
12634;DHT22;6382;48.614;8.880;2022-09-20T08:59:19;10.80;99.90
12634;DHT22;6382;48.614;8.880;2022-09-20T09:01:46;10.80;99.90
12634;DHT22;6382;48.614;8.880;2022-09-20T09:06:41;10.70;99.90
12634;DHT22;6382;48.614;8.880;2022-09-20T09:09:13;10.90;99.90
12634;DHT22;6382;48.614;8.880;2022-09-20T09:11:42;10.80;99.90
12634;DHT22;6382;48.614;8.880;2022-09-20T09:14:32;12.40;99.90
12634;DHT22;6382;48.614;8.880;2022-09-20T09:17:23;11.10;99.90
12634;DHT22;6382;48.614;8.880;2022-09-20T09:19:54;11.20;99.90
12634;DHT22;6382;48.614;8.880;2022-09-20T09:22:23;12.30;99.90
12634;DHT22;6382;48.614;8.880;2022-09-20T09:27:33;11.40;99.90
12634;DHT22;6382;48.614;8.880;2022-09-20T09:30:00;12.10;99.90
12634;DHT22;6382;48.614;8.880;2022-09-20T09:32:28;11.50;99.90
12634;DHT22;6382;48.614;8.880;2022-09-20T09:34:59;12.50;99.90
12634;DHT22;6382;48.614;8.880;2022-09-20T09:37:51;11.60;99.90
12634;DHT22;6382;48.614;8.880;2022-09-20T09:40:18;11.70;99.90
12634;DHT22;6382;48.614;8.880;2022-09-20T09:42:52;11.90;99.90
12634;DHT22;6382;48.614;8.880;2022-09-20T09:47:56;12.10;99.90
12634;DHT22;6382;48.614;8.880;2022-09-20T09:50:26;12.10;99.90
12634;DHT22;6382;48.614;8.880;2022-09-20T09:52:57;12.20;99.90
12634;DHT22;6382;48.614;8.880;2022-09-20T09:55:36;12.10;99.90
12634;DHT22;6382;48.614;8.880;2022-09-20T09:58:12;12.10;99.90
12634;DHT22;6382;48.614;8.880;2022-09-20T10:00:42;12.10;99.90
12634;DHT22;6382;48.614;8.880;2022-09-20T10:06:01;12.10;99.90
12634;DHT22;6382;48.614;8.880;2022-09-20T10:08:53;12.10;99.90
12634;DHT22;6382;48.614;8.880;2022-09-20T10:11:29;12.00;99.90
12634;DHT22;6382;48.614;8.880;2022-09-20T10:24:22;12.30;99.90
12634;DHT22;6382;48.614;8.880;2022-09-20T10:29:41;12.60;99.90
12634;DHT22;6382;48.614;8.880;2022-09-20T10:35:48;12.70;99.90
12634;DHT22;6382;48.614;8.880;2022-09-20T10:59:44;12.70;99.90
12634;DHT22;6382;48.614;8.880;2022-09-20T11:04:55;12.60;99.90
12634;DHT22;6382;48.614;8.880;2022-09-20T11:13:19;12.60;99.90
12634;DHT22;6382;48.614;8.880;2022-09-20T11:15:53;12.60;99.90
12634;DHT22;6382;48.614;8.880;2022-09-20T11:18:22;12.70;99.90
12634;DHT22;6382;48.614;8.880;2022-09-20T11:21:01;12.70;99.90
12634;DHT22;6382;48.614;8.880;2022-09-20T11:23:39;15.40;99.90
12634;DHT22;6382;48.614;8.880;2022-09-20T11:26:10;12.80;99.90
12634;DHT22;6382;48.614;8.880;2022-09-20T11:28:42;13.00;99.90
12634;DHT22;6382;48.614;8.880;2022-09-20T11:33:47;13.10;99.90
12634;DHT22;6382;48.614;8.880;2022-09-20T11:36:26;13.10;99.90
12634;DHT22;6382;48.614;8.880;2022-09-20T11:39:10;13.10;99.90
12634;DHT22;6382;48.614;8.880;2022-09-20T11:41:40;13.10;99.90
12634;DHT22;6382;48.614;8.880;2022-09-20T11:44:12;13.10;99.90
12634;DHT22;6382;48.614;8.880;2022-09-20T11:49:17;13.10;99.90
12634;DHT22;6382;48.614;8.880;2022-09-20T11:57:01;13.20;99.90
12634;DHT22;6382;48.614;8.880;2022-09-20T11:59:35;13.30;99.90
12634;DHT22;6382;48.614;8.880;2022-09-20T12:02:04;13.20;99.90
12634;DHT22;6382;48.614;8.880;2022-09-20T12:04:38;13.10;99.90
12634;DHT22;6382;48.614;8.880;2022-09-20T12:07:21;13.10;99.90
12634;DHT22;6382;48.614;8.880;2022-09-20T12:09:53;13.10;99.90
12634;DHT22;6382;48.614;8.880;2022-09-20T12:12:27;13.10;99.90
12634;DHT22;6382;48.614;8.880;2022-09-20T12:14:57;13.20;99.90
12634;DHT22;6382;48.614;8.880;2022-09-20T12:23:41;13.40;99.90
12634;DHT22;6382;48.614;8.880;2022-09-20T12:25:57;16.60;99.90
12634;DHT22;6382;48.614;8.880;2022-09-20T12:28:45;14.50;99.90
12634;DHT22;6382;48.614;8.880;2022-09-20T12:36:28;13.30;99.90
12634;DHT22;6382;48.614;8.880;2022-09-20T12:52:23;12.90;99.90
12634;DHT22;6382;48.614;8.880;2022-09-20T12:55:10;12.80;99.90
12634;DHT22;6382;48.614;8.880;2022-09-20T12:57:37;12.80;99.90
12634;DHT22;6382;48.614;8.880;2022-09-20T13:00:05;12.80;99.90
12634;DHT22;6382;48.614;8.880;2022-09-20T13:05:31;12.80;99.90
12634;DHT22;6382;48.614;8.880;2022-09-20T13:08:00;12.90;99.90
12634;DHT22;6382;48.614;8.880;2022-09-20T13:10:29;13.30;99.90
12634;DHT22;6382;48.614;8.880;2022-09-20T13:12:58;13.50;99.90
12634;DHT22;6382;48.614;8.880;2022-09-20T13:15:25;13.60;99.90
12634;DHT22;6382;48.614;8.880;2022-09-20T13:17:53;13.70;99.90
12634;DHT22;6382;48.614;8.880;2022-09-20T13:20:22;15.60;99.90
12634;DHT22;6382;48.614;8.880;2022-09-20T13:22:50;16.10;99.90
12634;DHT22;6382;48.614;8.880;2022-09-20T13:25:17;14.00;99.90
12634;DHT22;6382;48.614;8.880;2022-09-20T13:27:53;14.10;99.90
12634;DHT22;6382;48.614;8.880;2022-09-20T13:30:23;14.10;99.90
12634;DHT22;6382;48.614;8.880;2022-09-20T13:32:51;14.20;99.90
12634;DHT22;6382;48.614;8.880;2022-09-20T13:35:18;14.30;99.90
12634;DHT22;6382;48.614;8.880;2022-09-20T13:37:51;16.60;99.90
12634;DHT22;6382;48.614;8.880;2022-09-20T13:40:23;14.00;99.90
12634;DHT22;6382;48.614;8.880;2022-09-20T13:42:51;14.00;99.90
12634;DHT22;6382;48.614;8.880;2022-09-20T13:45:40;13.90;99.90
12634;DHT22;6382;48.614;8.880;2022-09-20T13:48:07;13.90;99.90
12634;DHT22;6382;48.614;8.880;2022-09-20T13:50:34;13.90;99.90
12634;DHT22;6382;48.614;8.880;2022-09-20T13:53:17;13.80;99.90
12634;DHT22;6382;48.614;8.880;2022-09-20T13:56:07;14.10;99.90
12634;DHT22;6382;48.614;8.880;2022-09-20T13:58:35;13.60;99.90
12634;DHT22;6382;48.614;8.880;2022-09-20T14:01:04;14.20;99.90
12634;DHT22;6382;48.614;8.880;2022-09-20T14:03:32;13.60;99.90
12634;DHT22;6382;48.614;8.880;2022-09-20T14:06:04;14.10;99.90
12634;DHT22;6382;48.614;8.880;2022-09-20T14:08:36;16.20;99.90
12634;DHT22;6382;48.614;8.880;2022-09-20T14:11:21;13.40;99.90
12634;DHT22;6382;48.614;8.880;2022-09-20T14:13:55;13.40;99.90
12634;DHT22;6382;48.614;8.880;2022-09-20T14:16:26;13.30;99.90
12634;DHT22;6382;48.614;8.880;2022-09-20T14:18:53;13.80;99.90
12634;DHT22;6382;48.614;8.880;2022-09-20T14:21:21;13.30;99.90
12634;DHT22;6382;48.614;8.880;2022-09-20T14:23:55;13.20;99.90
12634;DHT22;6382;48.614;8.880;2022-09-20T14:26:25;13.20;99.90
12634;DHT22;6382;48.614;8.880;2022-09-20T14:28:52;13.50;99.90
12634;DHT22;6382;48.614;8.880;2022-09-20T14:31:20;14.20;99.90
12634;DHT22;6382;48.614;8.880;2022-09-20T14:33:48;13.00;99.90
12634;DHT22;6382;48.614;8.880;2022-09-20T14:36:21;13.00;99.90
12634;DHT22;6382;48.614;8.880;2022-09-20T14:38:50;14.70;99.90
12634;DHT22;6382;48.614;8.880;2022-09-20T14:44:32;12.90;99.90
12634;DHT22;6382;48.614;8.880;2022-09-20T14:46:59;12.80;99.90
12634;DHT22;6382;48.614;8.880;2022-09-20T14:49:39;15.20;99.90
12634;DHT22;6382;48.614;8.880;2022-09-20T14:54:59;12.80;99.90
12634;DHT22;6382;48.614;8.880;2022-09-20T14:57:26;12.90;99.90
12634;DHT22;6382;48.614;8.880;2022-09-20T14:59:54;12.90;99.90
12634;DHT22;6382;48.614;8.880;2022-09-20T15:02:22;14.20;99.90
12634;DHT22;6382;48.614;8.880;2022-09-20T15:04:50;12.90;99.90
12634;DHT22;6382;48.614;8.880;2022-09-20T15:07:19;12.80;99.90
12634;DHT22;6382;48.614;8.880;2022-09-20T15:09:47;14.10;99.90
12634;DHT22;6382;48.614;8.880;2022-09-20T15:12:15;12.80;99.90
12634;DHT22;6382;48.614;8.880;2022-09-20T15:14:42;12.90;99.90
12634;DHT22;6382;48.614;8.880;2022-09-20T15:19:41;12.90;99.90
12634;DHT22;6382;48.614;8.880;2022-09-20T15:22:11;12.90;99.90
12634;DHT22;6382;48.614;8.880;2022-09-20T15:24:37;12.90;99.90
12634;DHT22;6382;48.614;8.880;2022-09-20T15:27:04;12.40;99.90
12634;DHT22;6382;48.614;8.880;2022-09-20T15:29:31;12.90;99.90
12634;DHT22;6382;48.614;8.880;2022-09-20T15:31:58;13.40;99.90
12634;DHT22;6382;48.614;8.880;2022-09-20T15:34:25;13.20;99.90
12634;DHT22;6382;48.614;8.880;2022-09-20T15:36:52;15.40;99.90
12634;DHT22;6382;48.614;8.880;2022-09-20T15:39:19;15.30;99.90
12634;DHT22;6382;48.614;8.880;2022-09-20T15:41:50;12.80;99.90
12634;DHT22;6382;48.614;8.880;2022-09-20T15:44:17;14.20;99.90
12634;DHT22;6382;48.614;8.880;2022-09-20T15:46:43;12.70;99.90
12634;DHT22;6382;48.614;8.880;2022-09-20T15:49:10;12.70;99.90
12634;DHT22;6382;48.614;8.880;2022-09-20T15:51:37;13.70;99.90
12634;DHT22;6382;48.614;8.880;2022-09-20T15:54:05;12.50;99.90
12634;DHT22;6382;48.614;8.880;2022-09-20T15:56:34;12.40;99.90
12634;DHT22;6382;48.614;8.880;2022-09-20T15:59:05;12.40;99.90
12634;DHT22;6382;48.614;8.880;2022-09-20T16:01:36;12.30;99.90
12634;DHT22;6382;48.614;8.880;2022-09-20T16:04:16;12.20;99.90
12634;DHT22;6382;48.614;8.880;2022-09-20T16:06:47;12.20;99.90
12634;DHT22;6382;48.614;8.880;2022-09-20T16:09:14;12.80;99.90
12634;DHT22;6382;48.614;8.880;2022-09-20T16:11:41;12.00;99.90
12634;DHT22;6382;48.614;8.880;2022-09-20T16:14:08;12.90;99.90
12634;DHT22;6382;48.614;8.880;2022-09-20T16:16:34;11.90;99.90
12634;DHT22;6382;48.614;8.880;2022-09-20T16:19:06;12.10;99.90
12634;DHT22;6382;48.614;8.880;2022-09-20T16:24:28;11.90;99.90
12634;DHT22;6382;48.614;8.880;2022-09-20T16:26:55;11.80;99.90
12634;DHT22;6382;48.614;8.880;2022-09-20T16:29:22;12.00;99.90
12634;DHT22;6382;48.614;8.880;2022-09-20T16:31:51;11.60;99.90
12634;DHT22;6382;48.614;8.880;2022-09-20T16:34:19;11.60;99.90
12634;DHT22;6382;48.614;8.880;2022-09-20T16:36:53;12.90;99.90
12634;DHT22;6382;48.614;8.880;2022-09-20T16:39:21;11.30;99.90
12634;DHT22;6382;48.614;8.880;2022-09-20T16:41:55;11.30;99.90
12634;DHT22;6382;48.614;8.880;2022-09-20T16:44:32;11.20;99.90
12634;DHT22;6382;48.614;8.880;2022-09-20T16:46:59;11.20;99.90
12634;DHT22;6382;48.614;8.880;2022-09-20T16:49:26;11.20;99.90
12634;DHT22;6382;48.614;8.880;2022-09-20T16:51:53;11.10;99.90
12634;DHT22;6382;48.614;8.880;2022-09-20T16:54:20;12.50;99.90
12634;DHT22;6382;48.614;8.880;2022-09-20T16:56:47;11.00;99.90
12634;DHT22;6382;48.614;8.880;2022-09-20T16:59:15;11.00;99.90
12634;DHT22;6382;48.614;8.880;2022-09-20T17:01:42;8.50;99.90
12634;DHT22;6382;48.614;8.880;2022-09-20T17:04:09;13.20;99.90
12634;DHT22;6382;48.614;8.880;2022-09-20T17:06:38;10.90;99.90
12634;DHT22;6382;48.614;8.880;2022-09-20T17:09:05;10.80;99.90
12634;DHT22;6382;48.614;8.880;2022-09-20T17:11:33;10.70;99.90
12634;DHT22;6382;48.614;8.880;2022-09-20T17:14:01;10.60;99.90
12634;DHT22;6382;48.614;8.880;2022-09-20T17:16:29;10.40;99.90
12634;DHT22;6382;48.614;8.880;2022-09-20T17:18:59;10.30;99.90
12634;DHT22;6382;48.614;8.880;2022-09-20T17:21:27;10.20;99.90
12634;DHT22;6382;48.614;8.880;2022-09-20T17:23:55;10.20;99.90
12634;DHT22;6382;48.614;8.880;2022-09-20T17:26:23;10.10;99.90
12634;DHT22;6382;48.614;8.880;2022-09-20T17:28:51;10.10;99.90
12634;DHT22;6382;48.614;8.880;2022-09-20T17:31:19;10.10;99.90
12634;DHT22;6382;48.614;8.880;2022-09-20T17:33:48;10.00;99.90
12634;DHT22;6382;48.614;8.880;2022-09-20T17:36:17;10.00;99.90
12634;DHT22;6382;48.614;8.880;2022-09-20T17:38:45;10.00;99.90
12634;DHT22;6382;48.614;8.880;2022-09-20T17:41:15;9.90;99.90
12634;DHT22;6382;48.614;8.880;2022-09-20T17:43:42;9.90;99.90
12634;DHT22;6382;48.614;8.880;2022-09-20T17:46:13;9.90;99.90
12634;DHT22;6382;48.614;8.880;2022-09-20T17:48:41;9.90;99.90
12634;DHT22;6382;48.614;8.880;2022-09-20T17:51:09;9.90;99.90
12634;DHT22;6382;48.614;8.880;2022-09-20T17:53:38;9.90;99.90
12634;DHT22;6382;48.614;8.880;2022-09-20T17:56:04;10.00;99.90
12634;DHT22;6382;48.614;8.880;2022-09-20T17:58:34;9.90;99.90
12634;DHT22;6382;48.614;8.880;2022-09-20T18:01:06;9.90;99.90
12634;DHT22;6382;48.614;8.880;2022-09-20T18:03:38;9.90;99.90
12634;DHT22;6382;48.614;8.880;2022-09-20T18:06:16;9.90;99.90
12634;DHT22;6382;48.614;8.880;2022-09-20T18:08:44;10.00;99.90
12634;DHT22;6382;48.614;8.880;2022-09-20T18:11:11;10.00;99.90
12634;DHT22;6382;48.614;8.880;2022-09-20T18:13:37;10.00;99.90
12634;DHT22;6382;48.614;8.880;2022-09-20T18:16:07;10.10;99.90
12634;DHT22;6382;48.614;8.880;2022-09-20T18:18:35;10.00;99.90
12634;DHT22;6382;48.614;8.880;2022-09-20T18:21:21;10.10;99.90
12634;DHT22;6382;48.614;8.880;2022-09-20T18:23:48;10.10;99.90
12634;DHT22;6382;48.614;8.880;2022-09-20T18:31:20;10.10;99.90
12634;DHT22;6382;48.614;8.880;2022-09-20T18:33:47;10.20;99.90
12634;DHT22;6382;48.614;8.880;2022-09-20T18:36:15;10.20;99.90
12634;DHT22;6382;48.614;8.880;2022-09-20T18:38:42;10.30;99.90
12634;DHT22;6382;48.614;8.880;2022-09-20T18:41:10;10.30;99.90
12634;DHT22;6382;48.614;8.880;2022-09-20T18:43:39;10.30;99.90
12634;DHT22;6382;48.614;8.880;2022-09-20T18:46:09;10.40;99.90
12634;DHT22;6382;48.614;8.880;2022-09-20T18:48:36;11.90;99.90
12634;DHT22;6382;48.614;8.880;2022-09-20T18:51:06;10.40;99.90
12634;DHT22;6382;48.614;8.880;2022-09-20T18:53:35;10.40;99.90
12634;DHT22;6382;48.614;8.880;2022-09-20T18:56:06;10.40;99.90
12634;DHT22;6382;48.614;8.880;2022-09-20T18:58:33;10.30;99.90
12634;DHT22;6382;48.614;8.880;2022-09-20T19:03:45;10.30;99.90
12634;DHT22;6382;48.614;8.880;2022-09-20T19:06:15;10.30;99.90
12634;DHT22;6382;48.614;8.880;2022-09-20T19:08:45;10.30;99.90
12634;DHT22;6382;48.614;8.880;2022-09-20T19:11:25;10.30;99.90
12634;DHT22;6382;48.614;8.880;2022-09-20T19:14:01;10.30;99.90
12634;DHT22;6382;48.614;8.880;2022-09-20T19:16:32;10.20;99.90
12634;DHT22;6382;48.614;8.880;2022-09-20T19:21:41;10.20;99.90
12634;DHT22;6382;48.614;8.880;2022-09-20T19:26:43;10.10;99.90
12634;DHT22;6382;48.614;8.880;2022-09-20T19:29:18;10.10;99.90
12634;DHT22;6382;48.614;8.880;2022-09-20T19:31:45;10.10;99.90
12634;DHT22;6382;48.614;8.880;2022-09-20T19:34:19;10.10;99.90
12634;DHT22;6382;48.614;8.880;2022-09-20T19:37:01;10.00;99.90
12634;DHT22;6382;48.614;8.880;2022-09-20T19:49:53;9.90;99.90
12634;DHT22;6382;48.614;8.880;2022-09-20T19:52:21;9.90;99.90
12634;DHT22;6382;48.614;8.880;2022-09-20T19:54:50;9.90;99.90
12634;DHT22;6382;48.614;8.880;2022-09-20T19:57:21;9.80;99.90
12634;DHT22;6382;48.614;8.880;2022-09-20T19:59:48;9.80;99.90
12634;DHT22;6382;48.614;8.880;2022-09-20T20:02:16;9.80;99.90
12634;DHT22;6382;48.614;8.880;2022-09-20T20:04:43;9.80;99.90
12634;DHT22;6382;48.614;8.880;2022-09-20T20:07:32;9.80;99.90
12634;DHT22;6382;48.614;8.880;2022-09-20T20:10:02;9.80;99.90
12634;DHT22;6382;48.614;8.880;2022-09-20T20:15:03;9.70;99.90
12634;DHT22;6382;48.614;8.880;2022-09-20T20:17:40;9.70;99.90
12634;DHT22;6382;48.614;8.880;2022-09-20T20:20:21;9.70;99.90
12634;DHT22;6382;48.614;8.880;2022-09-20T20:26:04;9.60;99.90
12634;DHT22;6382;48.614;8.880;2022-09-20T20:28:25;9.60;99.90
12634;DHT22;6382;48.614;8.880;2022-09-20T20:30:52;9.60;99.90
12634;DHT22;6382;48.614;8.880;2022-09-20T20:33:25;9.60;99.90
12634;DHT22;6382;48.614;8.880;2022-09-20T20:35:52;9.60;99.90
12634;DHT22;6382;48.614;8.880;2022-09-20T20:38:20;9.60;99.90
12634;DHT22;6382;48.614;8.880;2022-09-20T20:43:26;9.50;99.90
12634;DHT22;6382;48.614;8.880;2022-09-20T20:45:53;9.50;99.90
12634;DHT22;6382;48.614;8.880;2022-09-20T20:48:20;9.50;99.90
12634;DHT22;6382;48.614;8.880;2022-09-20T20:50:47;10.60;99.90
12634;DHT22;6382;48.614;8.880;2022-09-20T20:53:13;9.50;99.90
12634;DHT22;6382;48.614;8.880;2022-09-20T20:55:40;9.50;99.90
12634;DHT22;6382;48.614;8.880;2022-09-20T20:58:06;9.40;99.90
12634;DHT22;6382;48.614;8.880;2022-09-20T21:00:34;9.40;99.90
12634;DHT22;6382;48.614;8.880;2022-09-20T21:03:00;9.30;99.90
12634;DHT22;6382;48.614;8.880;2022-09-20T21:05:28;9.30;99.90
12634;DHT22;6382;48.614;8.880;2022-09-20T21:07:55;9.20;99.90
12634;DHT22;6382;48.614;8.880;2022-09-20T21:10:23;9.20;99.90
12634;DHT22;6382;48.614;8.880;2022-09-20T21:12:52;9.10;99.90
12634;DHT22;6382;48.614;8.880;2022-09-20T21:15:19;9.10;99.90